createdAt,value
2016-12-03T00:00:30.714Z,0
2016-12-03T00:01:11.479Z,0
2016-12-03T00:01:52.224Z,0
2016-12-03T00:02:32.987Z,0
2016-12-03T00:03:13.719Z,0
2016-12-03T00:03:54.488Z,0
2016-12-03T00:04:35.260Z,0
2016-12-03T00:05:16.028Z,0
2016-12-03T00:05:56.762Z,0
2016-12-03T00:06:37.542Z,0
2016-12-03T00:07:18.307Z,0
2016-12-03T00:07:59.085Z,0
2016-12-03T00:08:39.862Z,0
2016-12-03T00:09:20.611Z,0
2016-12-03T00:10:01.364Z,0
2016-12-03T00:10:42.120Z,0
2016-12-03T00:11:22.890Z,0
2016-12-03T00:12:03.639Z,0
2016-12-03T00:12:44.431Z,0
2016-12-03T00:13:25.221Z,0
2016-12-03T00:14:05.949Z,0
2016-12-03T00:14:46.724Z,0
2016-12-03T00:15:27.475Z,0
2016-12-03T00:16:08.225Z,0
2016-12-03T00:16:48.978Z,0
2016-12-03T00:17:29.747Z,0
2016-12-03T00:18:10.489Z,0
2016-12-03T00:18:51.232Z,0
2016-12-03T00:19:32.037Z,0
2016-12-03T00:20:12.768Z,0
2016-12-03T00:20:53.528Z,0
2016-12-03T00:21:34.326Z,0
2016-12-03T00:22:15.092Z,0
2016-12-03T00:22:55.835Z,0
2016-12-03T00:23:36.607Z,0
2016-12-03T00:24:17.364Z,0
2016-12-03T00:24:58.095Z,0
2016-12-03T00:25:38.855Z,0
2016-12-03T00:26:19.623Z,0
2016-12-03T00:27:00.386Z,0
2016-12-03T00:27:41.171Z,0
2016-12-03T00:28:21.938Z,0
2016-12-03T00:29:02.694Z,0
2016-12-03T00:29:43.448Z,0
2016-12-03T00:30:24.236Z,0
2016-12-03T00:31:04.995Z,0
2016-12-03T00:31:45.748Z,0
2016-12-03T00:32:26.491Z,0
2016-12-03T00:33:07.302Z,0
2016-12-03T00:33:48.034Z,0
2016-12-03T00:34:28.804Z,0
2016-12-03T00:35:09.601Z,0
2016-12-03T00:35:50.330Z,0
2016-12-03T00:36:31.097Z,0
2016-12-03T00:37:11.865Z,0
2016-12-03T00:37:52.613Z,0
2016-12-03T00:38:33.362Z,0
2016-12-03T00:39:14.127Z,0
2016-12-03T00:39:54.885Z,0
2016-12-03T00:40:35.658Z,0
2016-12-03T00:41:16.413Z,0
2016-12-03T00:41:57.182Z,0
2016-12-03T00:42:37.917Z,0
2016-12-03T00:43:18.673Z,0
2016-12-03T00:43:59.429Z,0
2016-12-03T00:44:40.162Z,0
2016-12-03T00:45:20.919Z,0
2016-12-03T00:46:01.693Z,0
2016-12-03T00:46:42.430Z,0
2016-12-03T00:47:23.200Z,0
2016-12-03T00:48:04.002Z,0
2016-12-03T00:48:44.758Z,0
2016-12-03T00:49:25.533Z,0
2016-12-03T00:50:06.323Z,0
2016-12-03T00:50:47.104Z,0
2016-12-03T00:51:27.847Z,0
2016-12-03T00:52:08.624Z,0
2016-12-03T00:52:49.380Z,0
2016-12-03T00:53:30.155Z,0
2016-12-03T00:54:10.918Z,0
2016-12-03T00:54:51.673Z,0
2016-12-03T00:55:32.420Z,0
2016-12-03T00:56:13.177Z,0
2016-12-03T00:56:53.955Z,0
2016-12-03T00:57:34.737Z,0
2016-12-03T00:58:15.514Z,0
2016-12-03T00:58:56.274Z,0
2016-12-03T00:59:37.021Z,0
2016-12-03T01:00:17.761Z,0
2016-12-03T01:00:58.550Z,0
2016-12-03T01:01:39.336Z,0
2016-12-03T01:02:20.098Z,0
2016-12-03T01:03:00.891Z,0
2016-12-03T01:03:41.619Z,0
2016-12-03T01:04:22.411Z,0
2016-12-03T01:05:03.188Z,0
2016-12-03T01:05:43.966Z,0
2016-12-03T01:06:24.715Z,0
2016-12-03T01:07:05.509Z,0
2016-12-03T01:07:46.256Z,0
2016-12-03T01:08:27.010Z,0
2016-12-03T01:09:07.818Z,0
2016-12-03T01:09:48.599Z,0
2016-12-03T01:10:29.364Z,0
2016-12-03T01:11:10.138Z,0
2016-12-03T01:11:50.914Z,0
2016-12-03T01:12:31.679Z,0
2016-12-03T01:13:12.454Z,0
2016-12-03T01:13:53.237Z,0
2016-12-03T01:14:33.981Z,0
2016-12-03T01:15:14.749Z,0
2016-12-03T01:15:55.509Z,0
2016-12-03T01:16:36.274Z,0
2016-12-03T01:17:17.021Z,0
2016-12-03T01:17:57.788Z,0
2016-12-03T01:18:38.547Z,0
2016-12-03T01:19:19.290Z,0
2016-12-03T01:20:00.043Z,0
2016-12-03T01:20:40.808Z,0
2016-12-03T01:21:21.547Z,0
2016-12-03T01:22:02.304Z,0
2016-12-03T01:22:43.095Z,0
2016-12-03T01:23:23.867Z,0
2016-12-03T01:24:04.624Z,0
2016-12-03T01:24:45.410Z,0
2016-12-03T01:25:26.139Z,0
2016-12-03T01:26:06.895Z,0
2016-12-03T01:26:47.650Z,0
2016-12-03T01:27:28.414Z,0
2016-12-03T01:28:09.135Z,0
2016-12-03T01:28:49.887Z,0
2016-12-03T01:29:30.708Z,0
2016-12-03T01:30:11.434Z,0
2016-12-03T01:30:52.239Z,0
2016-12-03T01:31:33.007Z,0
2016-12-03T01:32:13.788Z,0
2016-12-03T01:32:54.546Z,0
2016-12-03T01:33:35.327Z,0
2016-12-03T01:34:16.074Z,0
2016-12-03T01:34:56.843Z,0
2016-12-03T01:35:37.627Z,0
2016-12-03T01:36:18.370Z,0
2016-12-03T01:36:59.120Z,0
2016-12-03T01:37:39.888Z,0
2016-12-03T01:38:20.649Z,0
2016-12-03T01:39:01.398Z,0
2016-12-03T01:39:42.178Z,0
2016-12-03T01:40:22.949Z,0
2016-12-03T01:41:03.693Z,0
2016-12-03T01:41:44.474Z,0
2016-12-03T01:42:25.235Z,0
2016-12-03T01:43:05.990Z,0
2016-12-03T01:43:46.765Z,0
2016-12-03T01:44:27.544Z,0
2016-12-03T01:45:08.297Z,0
2016-12-03T01:45:49.080Z,0
2016-12-03T01:46:29.880Z,0
2016-12-03T01:47:10.616Z,0
2016-12-03T01:47:51.386Z,0
2016-12-03T01:48:32.156Z,0
2016-12-03T01:49:13.442Z,0
2016-12-03T01:49:53.672Z,0
2016-12-03T01:50:34.452Z,0
2016-12-03T01:51:15.226Z,0
2016-12-03T01:51:55.959Z,0
2016-12-03T01:52:36.761Z,0
2016-12-03T01:53:17.522Z,0
2016-12-03T01:53:58.279Z,0
2016-12-03T01:54:39.018Z,0
2016-12-03T01:55:19.826Z,0
2016-12-03T01:56:00.609Z,0
2016-12-03T01:56:41.339Z,0
2016-12-03T01:57:22.143Z,0
2016-12-03T01:58:02.890Z,0
2016-12-03T01:58:43.656Z,0
2016-12-03T01:59:24.417Z,0
2016-12-03T02:00:05.194Z,0
2016-12-03T02:00:45.945Z,0
2016-12-03T02:01:26.757Z,0
2016-12-03T02:02:07.512Z,0
2016-12-03T02:02:48.273Z,0
2016-12-03T02:03:29.055Z,0
2016-12-03T02:04:09.833Z,0
2016-12-03T02:04:50.601Z,0
2016-12-03T02:05:31.346Z,0
2016-12-03T02:06:12.145Z,0
2016-12-03T02:06:52.893Z,0
2016-12-03T02:07:33.640Z,0
2016-12-03T02:08:14.453Z,0
2016-12-03T02:08:55.217Z,0
2016-12-03T02:09:35.990Z,0
2016-12-03T02:10:16.779Z,0
2016-12-03T02:10:57.538Z,0
2016-12-03T02:11:38.301Z,0
2016-12-03T02:12:19.084Z,0
2016-12-03T02:12:59.867Z,0
2016-12-03T02:13:40.600Z,0
2016-12-03T02:14:21.371Z,0
2016-12-03T02:15:02.154Z,0
2016-12-03T02:15:42.909Z,0
2016-12-03T02:16:23.653Z,0
2016-12-03T02:17:04.426Z,0
2016-12-03T02:17:45.200Z,0
2016-12-03T02:18:25.936Z,0
2016-12-03T02:19:06.725Z,0
2016-12-03T02:19:47.466Z,0
2016-12-03T02:20:28.236Z,0
2016-12-03T02:21:08.999Z,0
2016-12-03T02:21:49.728Z,0
2016-12-03T02:22:30.496Z,0
2016-12-03T02:23:11.262Z,0
2016-12-03T02:23:52.032Z,0
2016-12-03T02:24:32.812Z,0
2016-12-03T02:25:13.554Z,0
2016-12-03T02:25:54.352Z,0
2016-12-03T02:26:35.106Z,0
2016-12-03T02:27:15.862Z,0
2016-12-03T02:27:56.611Z,0
2016-12-03T02:28:37.365Z,0
2016-12-03T02:29:18.119Z,0
2016-12-03T02:29:58.862Z,0
2016-12-03T02:30:39.641Z,0
2016-12-03T02:31:20.385Z,0
2016-12-03T02:32:01.152Z,0
2016-12-03T02:32:41.908Z,0
2016-12-03T02:33:22.684Z,0
2016-12-03T02:34:03.454Z,0
2016-12-03T02:34:44.215Z,0
2016-12-03T02:35:24.993Z,0
2016-12-03T02:36:05.771Z,0
2016-12-03T02:36:46.544Z,0
2016-12-03T02:37:27.335Z,0
2016-12-03T02:38:08.094Z,0
2016-12-03T02:38:48.816Z,0
2016-12-03T02:39:29.593Z,0
2016-12-03T02:40:10.372Z,0
2016-12-03T02:40:51.102Z,0
2016-12-03T02:41:31.878Z,0
2016-12-03T02:42:12.645Z,0
2016-12-03T02:42:53.392Z,0
2016-12-03T02:43:34.152Z,0
2016-12-03T02:44:14.911Z,0
2016-12-03T02:44:55.649Z,0
2016-12-03T02:45:36.417Z,0
2016-12-03T02:46:17.196Z,0
2016-12-03T02:46:57.954Z,0
2016-12-03T02:47:38.705Z,0
2016-12-03T02:48:19.486Z,0
2016-12-03T02:49:00.274Z,0
2016-12-03T02:49:41.003Z,0
2016-12-03T02:50:21.742Z,0
2016-12-03T02:51:02.526Z,0
2016-12-03T02:51:43.301Z,0
2016-12-03T02:52:24.118Z,0
2016-12-03T02:53:04.881Z,0
2016-12-03T02:53:45.656Z,0
2016-12-03T02:54:26.439Z,0
2016-12-03T02:55:07.199Z,0
2016-12-03T02:55:47.943Z,0
2016-12-03T02:56:28.727Z,0
2016-12-03T02:57:09.502Z,0
2016-12-03T02:57:50.257Z,0
2016-12-03T02:58:31.021Z,0
2016-12-03T02:59:11.791Z,0
2016-12-03T02:59:52.558Z,0
2016-12-03T03:00:33.283Z,0
2016-12-03T03:01:14.048Z,0
2016-12-03T03:01:54.805Z,0
2016-12-03T03:02:35.562Z,0
2016-12-03T03:03:16.316Z,0
2016-12-03T03:03:57.083Z,0
2016-12-03T03:04:37.845Z,0
2016-12-03T03:05:18.596Z,0
2016-12-03T03:05:59.434Z,0
2016-12-03T03:06:40.187Z,0
2016-12-03T03:07:20.934Z,0
2016-12-03T03:08:01.711Z,0
2016-12-03T03:08:42.455Z,0
2016-12-03T03:09:23.220Z,0
2016-12-03T03:10:03.977Z,0
2016-12-03T03:10:44.729Z,0
2016-12-03T03:11:25.472Z,0
2016-12-03T03:12:06.247Z,0
2016-12-03T03:12:47.048Z,0
2016-12-03T03:13:27.813Z,0
2016-12-03T03:14:08.585Z,0
2016-12-03T03:14:49.353Z,0
2016-12-03T03:15:30.128Z,0
2016-12-03T03:16:10.902Z,0
2016-12-03T03:16:51.661Z,0
2016-12-03T03:17:32.414Z,0
2016-12-03T03:18:13.179Z,0
2016-12-03T03:18:53.976Z,0
2016-12-03T03:19:34.743Z,0
2016-12-03T03:20:15.498Z,0
2016-12-03T03:20:56.246Z,0
2016-12-03T03:21:37.018Z,0
2016-12-03T03:22:17.753Z,0
2016-12-03T03:22:58.497Z,0
2016-12-03T03:23:39.251Z,0
2016-12-03T03:24:19.998Z,0
2016-12-03T03:25:00.760Z,0
2016-12-03T03:25:41.514Z,0
2016-12-03T03:26:22.250Z,0
2016-12-03T03:27:03.033Z,0
2016-12-03T03:27:43.792Z,0
2016-12-03T03:28:24.542Z,0
2016-12-03T03:29:05.295Z,0
2016-12-03T03:29:46.075Z,0
2016-12-03T03:30:26.813Z,0
2016-12-03T03:31:07.569Z,0
2016-12-03T03:31:48.399Z,0
2016-12-03T03:32:29.189Z,0
2016-12-03T03:33:09.921Z,0
2016-12-03T03:33:50.701Z,0
2016-12-03T03:34:31.474Z,0
2016-12-03T03:35:12.234Z,0
2016-12-03T03:35:53.006Z,0
2016-12-03T03:36:33.781Z,0
2016-12-03T03:37:14.574Z,0
2016-12-03T03:37:55.344Z,0
2016-12-03T03:38:36.148Z,0
2016-12-03T03:39:16.895Z,0
2016-12-03T03:39:57.666Z,0
2016-12-03T03:40:38.452Z,0
2016-12-03T03:41:19.198Z,0
2016-12-03T03:41:59.972Z,0
2016-12-03T03:42:40.730Z,0
2016-12-03T03:43:21.490Z,0
2016-12-03T03:44:02.225Z,0
2016-12-03T03:44:43.009Z,0
2016-12-03T03:45:23.765Z,0
2016-12-03T03:46:04.521Z,0
2016-12-03T03:46:45.294Z,0
2016-12-03T03:47:26.041Z,0
2016-12-03T03:48:06.820Z,0
2016-12-03T03:48:47.571Z,0
2016-12-03T03:49:28.337Z,0
2016-12-03T03:50:09.136Z,0
2016-12-03T03:50:49.901Z,0
2016-12-03T03:51:30.682Z,0
2016-12-03T03:52:11.438Z,0
2016-12-03T03:52:52.218Z,0
2016-12-03T03:53:32.973Z,0
2016-12-03T03:54:13.749Z,0
2016-12-03T03:54:54.494Z,0
2016-12-03T03:55:35.258Z,0
2016-12-03T03:56:16.028Z,0
2016-12-03T03:56:56.750Z,0
2016-12-03T03:57:37.504Z,0
2016-12-03T03:58:18.268Z,0
2016-12-03T03:58:59.035Z,0
2016-12-03T03:59:39.780Z,0
2016-12-03T04:00:20.541Z,0
2016-12-03T04:01:01.309Z,0
2016-12-03T04:01:42.074Z,0
2016-12-03T04:02:22.850Z,0
2016-12-03T04:03:03.592Z,0
2016-12-03T04:03:44.328Z,0
2016-12-03T04:04:25.078Z,0
2016-12-03T04:05:05.859Z,0
2016-12-03T04:05:46.627Z,0
2016-12-03T04:06:27.429Z,0
2016-12-03T04:07:08.201Z,0
2016-12-03T04:07:48.954Z,0
2016-12-03T04:08:29.743Z,0
2016-12-03T04:09:10.504Z,0
2016-12-03T04:09:51.252Z,0
2016-12-03T04:10:32.010Z,0
2016-12-03T04:11:12.817Z,0
2016-12-03T04:11:53.602Z,0
2016-12-03T04:12:34.363Z,0
2016-12-03T04:13:15.152Z,0
2016-12-03T04:13:55.924Z,0
2016-12-03T04:14:36.707Z,0
2016-12-03T04:15:17.450Z,0
2016-12-03T04:15:58.217Z,0
2016-12-03T04:16:38.974Z,0
2016-12-03T04:17:19.727Z,0
2016-12-03T04:18:00.490Z,0
2016-12-03T04:18:41.241Z,0
2016-12-03T04:19:22.028Z,0
2016-12-03T04:20:02.774Z,0
2016-12-03T04:20:43.538Z,0
2016-12-03T04:21:24.298Z,0
2016-12-03T04:22:05.061Z,0
2016-12-03T04:22:45.807Z,0
2016-12-03T04:23:26.568Z,0
2016-12-03T04:24:07.357Z,0
2016-12-03T04:24:48.088Z,0
2016-12-03T04:25:28.855Z,0
2016-12-03T04:26:09.613Z,0
2016-12-03T04:26:50.408Z,0
2016-12-03T04:27:31.163Z,0
2016-12-03T04:28:11.929Z,0
2016-12-03T04:28:52.721Z,0
2016-12-03T04:29:33.446Z,0
2016-12-03T04:30:14.215Z,0
2016-12-03T04:30:54.980Z,0
2016-12-03T04:31:35.719Z,0
2016-12-03T04:32:16.465Z,0
2016-12-03T04:32:57.230Z,0
2016-12-03T04:33:37.995Z,0
2016-12-03T04:34:18.724Z,0
2016-12-03T04:34:59.509Z,0
2016-12-03T04:35:40.268Z,0
2016-12-03T04:36:21.012Z,0
2016-12-03T04:37:01.785Z,0
2016-12-03T04:37:42.542Z,0
2016-12-03T04:38:23.301Z,0
2016-12-03T04:39:04.070Z,0
2016-12-03T04:39:44.830Z,0
2016-12-03T04:40:25.560Z,0
2016-12-03T04:41:06.338Z,0
2016-12-03T04:41:47.114Z,0
2016-12-03T04:42:27.872Z,0
2016-12-03T04:43:08.663Z,0
2016-12-03T04:43:49.406Z,0
2016-12-03T04:44:30.222Z,0
2016-12-03T04:45:10.937Z,0
2016-12-03T04:45:51.690Z,0
2016-12-03T04:46:32.445Z,0
2016-12-03T04:47:13.184Z,0
2016-12-03T04:47:53.938Z,0
2016-12-03T04:48:34.680Z,0
2016-12-03T04:49:15.473Z,0
2016-12-03T04:49:56.216Z,0
2016-12-03T04:50:36.980Z,0
2016-12-03T04:51:17.764Z,0
2016-12-03T04:51:58.544Z,0
2016-12-03T04:52:39.281Z,0
2016-12-03T04:53:20.066Z,0
2016-12-03T04:54:00.813Z,0
2016-12-03T04:54:41.596Z,0
2016-12-03T04:55:22.385Z,0
2016-12-03T04:56:03.153Z,0
2016-12-03T04:56:43.884Z,0
2016-12-03T04:57:24.670Z,0
2016-12-03T04:58:05.442Z,0
2016-12-03T04:58:46.199Z,0
2016-12-03T04:59:26.962Z,0
2016-12-03T05:00:07.712Z,0
2016-12-03T05:00:48.463Z,0
2016-12-03T05:01:29.224Z,0
2016-12-03T05:02:10.007Z,0
2016-12-03T05:02:50.765Z,0
2016-12-03T05:03:31.517Z,0
2016-12-03T05:04:12.308Z,0
2016-12-03T05:04:53.068Z,0
2016-12-03T05:05:33.816Z,0
2016-12-03T05:06:14.579Z,0
2016-12-03T05:06:55.356Z,0
2016-12-03T05:07:36.102Z,0
2016-12-03T05:08:16.861Z,0
2016-12-03T05:08:57.636Z,0
2016-12-03T05:09:38.362Z,0
2016-12-03T05:10:19.127Z,0
2016-12-03T05:10:59.879Z,0
2016-12-03T05:11:40.639Z,0
2016-12-03T05:12:21.385Z,0
2016-12-03T05:13:02.177Z,0
2016-12-03T05:13:42.968Z,0
2016-12-03T05:14:23.702Z,0
2016-12-03T05:15:04.480Z,0
2016-12-03T05:15:45.246Z,0
2016-12-03T05:16:26.011Z,0
2016-12-03T05:17:06.809Z,0
2016-12-03T05:17:47.573Z,0
2016-12-03T05:18:28.313Z,0
2016-12-03T05:19:09.074Z,0
2016-12-03T05:19:49.849Z,0
2016-12-03T05:20:30.602Z,0
2016-12-03T05:21:11.363Z,0
2016-12-03T05:21:52.118Z,0
2016-12-03T05:22:32.872Z,0
2016-12-03T05:23:13.606Z,0
2016-12-03T05:23:54.386Z,0
2016-12-03T05:24:35.135Z,0
2016-12-03T05:25:15.908Z,0
2016-12-03T05:25:56.715Z,0
2016-12-03T05:26:37.481Z,0
2016-12-03T05:27:18.273Z,0
2016-12-03T05:27:59.028Z,0
2016-12-03T05:28:39.785Z,0
2016-12-03T05:29:20.514Z,0
2016-12-03T05:30:01.286Z,0
2016-12-03T05:30:42.041Z,0
2016-12-03T05:31:22.824Z,0
2016-12-03T05:32:03.579Z,0
2016-12-03T05:32:44.331Z,0
2016-12-03T05:33:25.106Z,0
2016-12-03T05:34:05.880Z,0
2016-12-03T05:34:46.657Z,0
2016-12-03T05:35:27.409Z,0
2016-12-03T05:36:08.172Z,0
2016-12-03T05:36:48.960Z,0
2016-12-03T05:37:29.693Z,0
2016-12-03T05:38:10.445Z,0
2016-12-03T05:38:51.213Z,0
2016-12-03T05:39:31.992Z,0
2016-12-03T05:40:12.788Z,0
2016-12-03T05:40:53.550Z,0
2016-12-03T05:41:34.310Z,0
2016-12-03T05:42:15.035Z,0
2016-12-03T05:42:55.789Z,0
2016-12-03T05:43:36.566Z,0
2016-12-03T05:44:17.320Z,0
2016-12-03T05:44:58.092Z,0
2016-12-03T05:45:38.866Z,0
2016-12-03T05:46:19.610Z,0
2016-12-03T05:47:00.402Z,0
2016-12-03T05:47:41.184Z,0
2016-12-03T05:48:21.933Z,0
2016-12-03T05:49:02.716Z,0
2016-12-03T05:49:43.480Z,0
2016-12-03T05:50:24.222Z,0
2016-12-03T05:51:04.982Z,0
2016-12-03T05:51:45.756Z,0
2016-12-03T05:52:26.548Z,0
2016-12-03T05:53:07.274Z,0
2016-12-03T05:53:48.040Z,0
2016-12-03T05:54:28.801Z,0
2016-12-03T05:55:09.546Z,0
2016-12-03T05:55:50.307Z,0
2016-12-03T05:56:31.093Z,0
2016-12-03T05:57:11.897Z,0
2016-12-03T05:57:52.660Z,0
2016-12-03T05:58:33.439Z,0
2016-12-03T05:59:14.199Z,0
2016-12-03T05:59:54.943Z,0
2016-12-03T06:00:35.727Z,0
2016-12-03T06:01:16.506Z,0
2016-12-03T06:01:57.267Z,0
2016-12-03T06:02:38.027Z,0
2016-12-03T06:03:18.781Z,0
2016-12-03T06:03:59.524Z,0
2016-12-03T06:04:40.289Z,0
2016-12-03T06:05:21.031Z,0
2016-12-03T06:06:01.782Z,0
2016-12-03T06:06:42.543Z,0
2016-12-03T06:07:23.321Z,0
2016-12-03T06:08:04.070Z,0
2016-12-03T06:08:44.863Z,0
2016-12-03T06:09:25.692Z,0
2016-12-03T06:10:06.426Z,0
2016-12-03T06:10:47.219Z,0
2016-12-03T06:11:27.976Z,0
2016-12-03T06:12:08.728Z,0
2016-12-03T06:12:49.480Z,0
2016-12-03T06:13:30.232Z,0
2016-12-03T06:14:11.009Z,0
2016-12-03T06:14:51.733Z,0
2016-12-03T06:15:32.503Z,0
2016-12-03T06:16:13.250Z,0
2016-12-03T06:16:54.014Z,0
2016-12-03T06:17:34.765Z,0
2016-12-03T06:18:15.544Z,0
2016-12-03T06:18:56.302Z,0
2016-12-03T06:19:37.075Z,0
2016-12-03T06:20:17.852Z,0
2016-12-03T06:20:58.596Z,0
2016-12-03T06:21:39.353Z,0
2016-12-03T06:22:20.118Z,0
2016-12-03T06:23:00.879Z,0
2016-12-03T06:23:42.083Z,0
2016-12-03T06:24:22.373Z,0
2016-12-03T06:25:03.135Z,0
2016-12-03T06:25:43.867Z,0
2016-12-03T06:26:24.626Z,0
2016-12-03T06:27:05.397Z,0
2016-12-03T06:27:46.181Z,0
2016-12-03T06:28:26.932Z,0
2016-12-03T06:29:07.705Z,0
2016-12-03T06:29:48.466Z,0
2016-12-03T06:30:29.222Z,0
2016-12-03T06:31:09.987Z,0
2016-12-03T06:31:50.771Z,0
2016-12-03T06:32:31.515Z,0
2016-12-03T06:33:12.300Z,0
2016-12-03T06:33:53.065Z,0
2016-12-03T06:34:33.796Z,0
2016-12-03T06:35:14.569Z,0
2016-12-03T06:35:55.309Z,0
2016-12-03T06:36:36.057Z,0
2016-12-03T06:37:16.830Z,0
2016-12-03T06:37:57.608Z,0
2016-12-03T06:38:38.362Z,0
2016-12-03T06:39:19.104Z,0
2016-12-03T06:39:59.889Z,0
2016-12-03T06:40:40.644Z,0
2016-12-03T06:41:21.375Z,0
2016-12-03T06:42:02.166Z,0
2016-12-03T06:42:42.921Z,0
2016-12-03T06:43:23.682Z,0
2016-12-03T06:44:04.444Z,0
2016-12-03T06:44:45.215Z,0
2016-12-03T06:45:25.934Z,0
2016-12-03T06:46:06.696Z,0
2016-12-03T06:46:47.497Z,0
2016-12-03T06:47:28.228Z,0
2016-12-03T06:48:09.015Z,0
2016-12-03T06:48:49.769Z,0
2016-12-03T06:49:30.555Z,0
2016-12-03T06:50:11.308Z,0
2016-12-03T06:50:52.068Z,0
2016-12-03T06:51:32.830Z,0
2016-12-03T06:52:13.591Z,0
2016-12-03T06:52:54.370Z,0
2016-12-03T06:53:35.146Z,0
2016-12-03T06:54:15.934Z,0
2016-12-03T06:54:56.684Z,0
2016-12-03T06:55:37.445Z,0
2016-12-03T06:56:18.178Z,0
2016-12-03T06:56:58.926Z,0
2016-12-03T06:57:39.680Z,0
2016-12-03T06:58:20.408Z,0
2016-12-03T06:59:01.199Z,0
2016-12-03T06:59:41.952Z,0
2016-12-03T07:00:22.716Z,0
2016-12-03T07:01:03.476Z,0
2016-12-03T07:01:44.208Z,4
2016-12-03T07:02:24.966Z,4
2016-12-03T07:03:05.760Z,4
2016-12-03T07:03:46.504Z,4
2016-12-03T07:04:27.277Z,4
2016-12-03T07:05:08.033Z,4
2016-12-03T07:05:48.792Z,0
2016-12-03T07:06:29.555Z,0
2016-12-03T07:07:10.339Z,0
2016-12-03T07:07:51.091Z,0
2016-12-03T07:08:31.850Z,0
2016-12-03T07:09:12.645Z,0
2016-12-03T07:09:53.405Z,0
2016-12-03T07:10:34.156Z,0
2016-12-03T07:11:14.922Z,0
2016-12-03T07:11:55.696Z,0
2016-12-03T07:12:36.422Z,0
2016-12-03T07:13:17.194Z,4
2016-12-03T07:13:57.983Z,4
2016-12-03T07:14:38.699Z,4
2016-12-03T07:15:19.463Z,4
2016-12-03T07:16:00.245Z,4
2016-12-03T07:16:40.974Z,4
2016-12-03T07:17:21.710Z,4
2016-12-03T07:18:02.482Z,0
2016-12-03T07:18:43.265Z,0
2016-12-03T07:19:24.010Z,0
2016-12-03T07:20:04.790Z,4
2016-12-03T07:20:45.553Z,4
2016-12-03T07:21:26.316Z,4
2016-12-03T07:22:07.091Z,4
2016-12-03T07:22:47.845Z,4
2016-12-03T07:23:28.577Z,0
2016-12-03T07:24:09.353Z,4
2016-12-03T07:24:50.090Z,4
2016-12-03T07:25:30.833Z,4
2016-12-03T07:26:11.578Z,4
2016-12-03T07:26:52.323Z,4
2016-12-03T07:27:33.085Z,8
2016-12-03T07:28:13.820Z,4
2016-12-03T07:28:54.618Z,4
2016-12-03T07:29:35.351Z,8
2016-12-03T07:30:16.620Z,4
2016-12-03T07:30:56.882Z,4
2016-12-03T07:31:37.627Z,8
2016-12-03T07:32:18.405Z,8
2016-12-03T07:32:59.177Z,8
2016-12-03T07:33:39.940Z,8
2016-12-03T07:34:20.691Z,8
2016-12-03T07:35:01.467Z,8
2016-12-03T07:35:42.235Z,8
2016-12-03T07:36:22.967Z,4
2016-12-03T07:37:04.630Z,4
2016-12-03T07:37:44.523Z,8
2016-12-03T07:38:25.276Z,4
2016-12-03T07:39:06.028Z,4
2016-12-03T07:39:46.818Z,4
2016-12-03T07:40:27.615Z,4
2016-12-03T07:41:08.393Z,4
2016-12-03T07:41:49.190Z,4
2016-12-03T07:42:29.943Z,8
2016-12-03T07:43:10.686Z,8
2016-12-03T07:43:51.437Z,4
2016-12-03T07:44:32.206Z,8
2016-12-03T07:45:12.959Z,8
2016-12-03T07:45:53.707Z,8
2016-12-03T07:46:34.498Z,8
2016-12-03T07:47:15.249Z,8
2016-12-03T07:47:56.022Z,12
2016-12-03T07:48:36.773Z,12
2016-12-03T07:49:17.538Z,12
2016-12-03T07:49:58.289Z,8
2016-12-03T07:50:39.066Z,8
2016-12-03T07:51:19.853Z,8
2016-12-03T07:52:01.539Z,8
2016-12-03T07:52:42.299Z,8
2016-12-03T07:53:23.074Z,8
2016-12-03T07:54:03.826Z,8
2016-12-03T07:54:45.402Z,8
2016-12-03T07:55:26.166Z,8
2016-12-03T07:56:06.898Z,8
2016-12-03T07:56:47.665Z,8
2016-12-03T07:57:28.417Z,8
2016-12-03T07:58:09.164Z,8
2016-12-03T07:58:49.927Z,12
2016-12-03T07:59:30.677Z,12
2016-12-03T08:00:11.452Z,8
2016-12-03T08:00:52.217Z,8
2016-12-03T08:01:32.988Z,8
2016-12-03T08:02:13.747Z,12
2016-12-03T08:02:54.510Z,12
2016-12-03T08:03:35.287Z,8
2016-12-03T08:04:16.908Z,12
2016-12-03T08:04:57.675Z,12
2016-12-03T08:05:38.466Z,12
2016-12-03T08:06:19.241Z,12
2016-12-03T08:06:59.946Z,12
2016-12-03T08:07:40.745Z,16
2016-12-03T08:08:21.509Z,16
2016-12-03T08:09:02.251Z,16
2016-12-03T08:09:43.017Z,20
2016-12-03T08:10:24.645Z,20
2016-12-03T08:11:04.529Z,20
2016-12-03T08:11:45.304Z,24
2016-12-03T08:12:26.088Z,20
2016-12-03T08:13:06.822Z,24
2016-12-03T08:13:47.587Z,20
2016-12-03T08:14:28.385Z,24
2016-12-03T08:15:09.142Z,24
2016-12-03T08:15:49.901Z,28
2016-12-03T08:16:30.708Z,28
2016-12-03T08:17:11.463Z,28
2016-12-03T08:17:52.218Z,28
2016-12-03T08:18:32.998Z,28
2016-12-03T08:19:13.783Z,24
2016-12-03T08:19:54.481Z,24
2016-12-03T08:20:35.247Z,24
2016-12-03T08:21:16.023Z,24
2016-12-03T08:21:57.335Z,28
2016-12-03T08:22:38.082Z,24
2016-12-03T08:23:18.860Z,24
2016-12-03T08:23:59.603Z,28
2016-12-03T08:24:40.364Z,24
2016-12-03T08:25:21.179Z,24
2016-12-03T08:26:01.929Z,24
2016-12-03T08:26:42.692Z,24
2016-12-03T08:27:23.471Z,28
2016-12-03T08:28:04.255Z,28
2016-12-03T08:28:45.007Z,24
2016-12-03T08:29:25.782Z,24
2016-12-03T08:30:06.533Z,24
2016-12-03T08:30:47.281Z,24
2016-12-03T08:31:28.069Z,24
2016-12-03T08:32:08.841Z,24
2016-12-03T08:32:49.595Z,24
2016-12-03T08:33:30.368Z,24
2016-12-03T08:34:11.153Z,24
2016-12-03T08:34:51.911Z,28
2016-12-03T08:35:32.691Z,28
2016-12-03T08:36:14.267Z,28
2016-12-03T08:36:55.034Z,28
2016-12-03T08:37:35.794Z,28
2016-12-03T08:38:16.572Z,24
2016-12-03T08:38:57.318Z,28
2016-12-03T08:39:38.045Z,24
2016-12-03T08:40:18.800Z,28
2016-12-03T08:40:59.560Z,32
2016-12-03T08:41:40.319Z,40
2016-12-03T08:42:21.116Z,32
2016-12-03T08:43:01.879Z,32
2016-12-03T08:43:42.636Z,32
2016-12-03T08:44:23.395Z,28
2016-12-03T08:45:04.201Z,32
2016-12-03T08:45:44.957Z,32
2016-12-03T08:46:25.721Z,28
2016-12-03T08:47:06.488Z,28
2016-12-03T08:47:47.237Z,28
2016-12-03T08:48:27.990Z,28
2016-12-03T08:49:08.755Z,28
2016-12-03T08:49:49.510Z,28
2016-12-03T08:50:30.245Z,28
2016-12-03T08:51:11.006Z,28
2016-12-03T08:51:51.747Z,28
2016-12-03T08:52:32.509Z,28
2016-12-03T08:53:13.272Z,28
2016-12-03T08:53:54.033Z,28
2016-12-03T08:54:34.784Z,28
2016-12-03T08:55:15.540Z,28
2016-12-03T08:55:56.307Z,28
2016-12-03T08:56:37.072Z,28
2016-12-03T08:57:17.810Z,32
2016-12-03T08:57:58.589Z,28
2016-12-03T08:58:39.360Z,28
2016-12-03T08:59:20.108Z,28
2016-12-03T09:00:00.870Z,32
2016-12-03T09:00:41.612Z,28
2016-12-03T09:01:22.363Z,28
2016-12-03T09:02:03.124Z,28
2016-12-03T09:02:43.887Z,28
2016-12-03T09:03:24.638Z,28
2016-12-03T09:04:05.403Z,28
2016-12-03T09:04:46.155Z,28
2016-12-03T09:05:26.906Z,28
2016-12-03T09:06:07.674Z,28
2016-12-03T09:06:48.436Z,28
2016-12-03T09:07:29.185Z,28
2016-12-03T09:08:09.939Z,28
2016-12-03T09:08:50.710Z,28
2016-12-03T09:09:31.463Z,32
2016-12-03T09:10:12.203Z,32
2016-12-03T09:10:52.956Z,28
2016-12-03T09:11:33.708Z,28
2016-12-03T09:12:14.438Z,28
2016-12-03T09:12:55.224Z,28
2016-12-03T09:13:35.996Z,28
2016-12-03T09:14:16.739Z,32
2016-12-03T09:14:57.524Z,32
2016-12-03T09:15:38.282Z,28
2016-12-03T09:16:19.027Z,28
2016-12-03T09:16:59.812Z,28
2016-12-03T09:17:40.578Z,32
2016-12-03T09:18:21.357Z,32
2016-12-03T09:19:02.123Z,28
2016-12-03T09:19:42.864Z,28
2016-12-03T09:20:23.620Z,32
2016-12-03T09:21:04.394Z,32
2016-12-03T09:21:45.164Z,36
2016-12-03T09:22:25.907Z,32
2016-12-03T09:23:06.671Z,32
2016-12-03T09:23:48.386Z,36
2016-12-03T09:24:29.139Z,44
2016-12-03T09:25:09.938Z,36
2016-12-03T09:25:50.679Z,36
2016-12-03T09:26:31.445Z,36
2016-12-03T09:27:12.210Z,40
2016-12-03T09:27:52.967Z,44
2016-12-03T09:28:33.723Z,44
2016-12-03T09:29:14.471Z,44
2016-12-03T09:29:55.249Z,44
2016-12-03T09:30:35.970Z,44
2016-12-03T09:31:16.753Z,44
2016-12-03T09:31:57.511Z,48
2016-12-03T09:32:38.266Z,52
2016-12-03T09:33:19.021Z,56
2016-12-03T09:33:59.789Z,60
2016-12-03T09:34:40.542Z,64
2016-12-03T09:35:21.343Z,64
2016-12-03T09:36:02.129Z,56
2016-12-03T09:36:42.896Z,52
2016-12-03T09:37:23.669Z,60
2016-12-03T09:38:04.560Z,64
2016-12-03T09:38:45.336Z,60
2016-12-03T09:39:26.134Z,56
2016-12-03T09:40:06.894Z,44
2016-12-03T09:40:47.682Z,40
2016-12-03T09:41:28.401Z,40
2016-12-03T09:42:09.186Z,40
2016-12-03T09:42:49.953Z,48
2016-12-03T09:43:30.699Z,52
2016-12-03T09:44:11.467Z,48
2016-12-03T09:44:52.245Z,52
2016-12-03T09:45:32.999Z,48
2016-12-03T09:46:13.755Z,44
2016-12-03T09:46:54.542Z,40
2016-12-03T09:47:35.295Z,44
2016-12-03T09:48:16.097Z,44
2016-12-03T09:48:56.872Z,44
2016-12-03T09:49:37.623Z,40
2016-12-03T09:50:18.353Z,40
2016-12-03T09:50:59.125Z,40
2016-12-03T09:51:39.875Z,40
2016-12-03T09:52:20.648Z,44
2016-12-03T09:53:01.418Z,44
2016-12-03T09:53:42.201Z,40
2016-12-03T09:54:22.974Z,40
2016-12-03T09:55:03.765Z,40
2016-12-03T09:55:44.528Z,40
2016-12-03T09:56:25.301Z,44
2016-12-03T09:57:06.051Z,44
2016-12-03T09:57:46.866Z,40
2016-12-03T09:58:27.594Z,40